createdAt,value
2023-01-17T00:02:12.085Z,-4.27
2023-01-17T00:04:58.568Z,-4.27
2023-01-17T00:07:45.042Z,-4.24
2023-01-17T00:10:15.818Z,-4.25
2023-01-17T00:12:55.768Z,-4.17
2023-01-17T00:15:24.721Z,-4.23
2023-01-17T00:17:53.535Z,-4.23
2023-01-17T00:20:48.532Z,-4.19
2023-01-17T00:23:42.681Z,-4.10
2023-01-17T00:26:15.008Z,-4.16
2023-01-17T00:28:43.872Z,-4.17
2023-01-17T00:31:13.577Z,-4.43
2023-01-17T00:33:41.205Z,-4.20
2023-01-17T00:36:09.935Z,-4.17
2023-01-17T00:38:38.980Z,-4.17
2023-01-17T00:41:09.377Z,-4.14
2023-01-17T00:43:56.069Z,-4.21
2023-01-17T00:46:41.781Z,-4.18
2023-01-17T00:49:27.632Z,-4.19
2023-01-17T00:52:13.904Z,-4.16
2023-01-17T00:54:59.680Z,-4.18
2023-01-17T00:57:45.477Z,-4.18
2023-01-17T01:00:31.767Z,-4.09
2023-01-17T01:03:17.788Z,-4.13
2023-01-17T01:06:03.823Z,-4.28
2023-01-17T01:08:49.763Z,-4.11
2023-01-17T01:11:39.208Z,-4.06
2023-01-17T01:14:28.391Z,-4.07
2023-01-17T01:17:14.324Z,-4.11
2023-01-17T01:20:00.125Z,-4.20
2023-01-17T01:22:46.081Z,-4.27
2023-01-17T01:25:31.890Z,-4.34
2023-01-17T01:28:32.921Z,-4.26
2023-01-17T01:31:20.333Z,-4.38
2023-01-17T01:33:48.279Z,-4.43
2023-01-17T01:36:16.232Z,-4.48
2023-01-17T01:38:45.020Z,-4.50
2023-01-17T01:41:12.685Z,-4.49
2023-01-17T01:43:46.358Z,-4.39
2023-01-17T01:46:16.874Z,-4.17
2023-01-17T01:48:51.077Z,-4.30
2023-01-17T01:51:33.471Z,-4.38
2023-01-17T01:54:22.453Z,-4.36
2023-01-17T01:56:52.997Z,-4.39
2023-01-17T01:59:22.989Z,-4.37
2023-01-17T02:01:53.456Z,-4.33
2023-01-17T02:04:23.041Z,-4.36
2023-01-17T02:06:56.619Z,-4.32
2023-01-17T02:09:24.739Z,-4.35
2023-01-17T02:11:52.396Z,-4.34
2023-01-17T02:14:23.242Z,-4.29
2023-01-17T02:17:16.041Z,-4.13
2023-01-17T02:19:52.728Z,-4.17
2023-01-17T02:22:51.131Z,-4.11
2023-01-17T02:25:52.408Z,-4.14
2023-01-17T02:28:48.391Z,-4.18
2023-01-17T02:31:21.272Z,-4.21
2023-01-17T02:33:54.827Z,-4.33
2023-01-17T02:36:32.370Z,-4.26
2023-01-17T02:39:23.223Z,-4.32
2023-01-17T02:42:14.743Z,-4.27
2023-01-17T02:44:44.211Z,-4.40
2023-01-17T02:47:29.758Z,-4.39
2023-01-17T02:50:14.200Z,-4.47
2023-01-17T02:52:41.629Z,-4.53
2023-01-17T02:55:11.992Z,-4.53
2023-01-17T02:58:05.819Z,-4.43
2023-01-17T03:00:46.282Z,-4.35
2023-01-17T03:03:50.952Z,-4.28
2023-01-17T03:06:31.531Z,-4.28
2023-01-17T03:08:59.103Z,-4.41
2023-01-17T03:11:27.712Z,-4.37
2023-01-17T03:13:57.192Z,-4.36
2023-01-17T03:16:28.008Z,-4.38
2023-01-17T03:18:55.592Z,-4.38
2023-01-17T03:21:24.570Z,-4.35
2023-01-17T03:23:52.526Z,-4.37
2023-01-17T03:26:20.003Z,-4.38
2023-01-17T03:28:47.612Z,-4.36
2023-01-17T03:31:20.171Z,-4.31
2023-01-17T03:33:47.692Z,-4.40
2023-01-17T03:36:15.411Z,-4.41
2023-01-17T03:38:42.861Z,-4.43
2023-01-17T03:41:10.377Z,-4.49
2023-01-17T03:43:37.872Z,-4.55
2023-01-17T03:46:07.534Z,-4.53
2023-01-17T03:48:35.068Z,-4.59
2023-01-17T03:51:02.682Z,-4.63
2023-01-17T03:53:30.176Z,-4.57
2023-01-17T03:55:57.660Z,-4.56
2023-01-17T03:58:25.090Z,-4.60
2023-01-17T04:00:52.553Z,-4.66
2023-01-17T04:03:20.061Z,-4.69
2023-01-17T04:05:47.509Z,-4.67
2023-01-17T04:08:14.923Z,-4.66
2023-01-17T04:10:42.488Z,-4.72
2023-01-17T04:13:09.950Z,-4.72
2023-01-17T04:15:37.522Z,-4.74
2023-01-17T04:18:05.907Z,-4.71
2023-01-17T04:20:34.732Z,-4.69
2023-01-17T04:23:02.902Z,-4.72
2023-01-17T04:25:31.123Z,-4.60
2023-01-17T04:28:00.435Z,-4.31
2023-01-17T04:30:29.110Z,-4.03
2023-01-17T04:32:57.142Z,-3.64
2023-01-17T04:35:25.193Z,-3.25
2023-01-17T04:37:53.235Z,-2.83
2023-01-17T04:40:20.708Z,-2.46
2023-01-17T04:42:48.688Z,-2.04
2023-01-17T04:45:16.302Z,-1.59
2023-01-17T04:47:43.831Z,-1.27
2023-01-17T04:50:12.055Z,-0.86
2023-01-17T04:52:39.670Z,-0.44
2023-01-17T04:55:08.103Z,-0.03
2023-01-17T04:57:35.513Z,0.40
2023-01-17T05:00:03.333Z,0.84
2023-01-17T05:02:32.009Z,1.22
2023-01-17T05:04:59.590Z,1.61
2023-01-17T05:07:27.085Z,1.93
2023-01-17T05:09:54.547Z,2.26
2023-01-17T05:12:24.825Z,2.65
2023-01-17T05:14:52.238Z,3.11
2023-01-17T05:17:20.131Z,3.52
2023-01-17T05:19:47.742Z,3.90
2023-01-17T05:22:15.627Z,4.34
2023-01-17T05:24:47.777Z,4.68
2023-01-17T05:27:16.164Z,5.19
2023-01-17T05:29:43.810Z,5.66
2023-01-17T05:32:11.347Z,6.10
2023-01-17T05:34:38.862Z,6.56
2023-01-17T05:37:06.394Z,6.80
2023-01-17T05:39:33.862Z,7.30
2023-01-17T05:42:01.602Z,7.66
2023-01-17T05:44:29.079Z,7.93
2023-01-17T05:46:56.957Z,8.28
2023-01-17T05:49:24.442Z,8.56
2023-01-17T05:51:54.683Z,8.85
2023-01-17T05:54:22.357Z,9.15
2023-01-17T05:56:49.840Z,9.38
2023-01-17T05:59:28.542Z,9.63
2023-01-17T06:02:03.640Z,9.88
2023-01-17T06:04:31.259Z,10.16
2023-01-17T06:06:58.871Z,10.41
2023-01-17T06:09:26.517Z,10.63
2023-01-17T06:11:54.159Z,10.91
2023-01-17T06:14:21.634Z,11.17
2023-01-17T06:16:49.282Z,11.52
2023-01-17T06:19:16.704Z,11.67
2023-01-17T06:21:44.120Z,12.05
2023-01-17T06:24:11.592Z,12.39
2023-01-17T06:26:39.369Z,12.62
2023-01-17T06:29:07.039Z,12.93
2023-01-17T06:31:34.675Z,13.18
2023-01-17T06:34:03.675Z,13.43
2023-01-17T06:36:33.267Z,13.71
2023-01-17T06:39:00.740Z,14.00
2023-01-17T06:41:28.319Z,14.07
2023-01-17T06:43:56.667Z,14.13
2023-01-17T06:46:24.274Z,14.29
2023-01-17T06:48:52.100Z,14.42
2023-01-17T06:51:20.001Z,14.55
2023-01-17T06:53:50.716Z,14.66
2023-01-17T06:56:18.262Z,14.84
2023-01-17T06:58:50.592Z,14.88
2023-01-17T07:01:19.279Z,15.02
2023-01-17T07:03:46.873Z,15.05
2023-01-17T07:06:14.428Z,15.13
2023-01-17T07:08:42.075Z,15.20
2023-01-17T07:11:10.018Z,15.16
2023-01-17T07:13:38.899Z,15.12
2023-01-17T07:16:07.674Z,15.02
2023-01-17T07:18:35.578Z,14.93
2023-01-17T07:21:03.085Z,14.77
2023-01-17T07:23:30.656Z,14.60
2023-01-17T07:26:00.476Z,14.29
2023-01-17T07:28:28.850Z,14.00
2023-01-17T07:30:56.835Z,13.62
2023-01-17T07:33:24.334Z,13.24
2023-01-17T07:35:52.036Z,12.87
2023-01-17T07:38:20.469Z,12.37
2023-01-17T07:40:47.998Z,12.11
2023-01-17T07:43:15.421Z,11.62
2023-01-17T07:45:44.534Z,11.32
2023-01-17T07:48:12.930Z,11.03
2023-01-17T07:50:40.535Z,10.62
2023-01-17T07:53:08.079Z,10.24
2023-01-17T07:55:35.708Z,9.78
2023-01-17T07:58:10.691Z,9.29
2023-01-17T08:00:38.284Z,9.00
2023-01-17T08:03:06.558Z,8.76
2023-01-17T08:05:33.934Z,8.29
2023-01-17T08:08:01.460Z,7.87
2023-01-17T08:10:29.013Z,7.75
2023-01-17T08:12:56.641Z,7.52
2023-01-17T08:15:26.892Z,7.20
2023-01-17T08:17:54.445Z,6.93
2023-01-17T08:20:22.018Z,6.63
2023-01-17T08:22:49.599Z,6.34
2023-01-17T08:25:17.180Z,5.82
2023-01-17T08:27:44.755Z,5.85
2023-01-17T08:30:12.677Z,5.56
2023-01-17T08:32:41.217Z,5.27
2023-01-17T08:35:09.568Z,5.26
2023-01-17T08:37:38.240Z,5.04
2023-01-17T08:40:06.731Z,4.83
2023-01-17T08:42:39.515Z,4.59
2023-01-17T08:45:08.914Z,4.52
2023-01-17T08:47:36.470Z,4.28
2023-01-17T08:50:07.480Z,4.42
2023-01-17T08:52:36.393Z,3.92
2023-01-17T08:55:06.225Z,3.72
2023-01-17T08:57:33.951Z,3.50
2023-01-17T09:00:01.410Z,3.28
2023-01-17T09:02:32.188Z,2.84
2023-01-17T09:05:00.999Z,2.85
2023-01-17T09:07:30.781Z,2.76
2023-01-17T09:09:58.263Z,2.57
2023-01-17T09:12:25.934Z,2.44
2023-01-17T09:14:53.465Z,2.27
2023-01-17T09:17:21.222Z,2.26
2023-01-17T09:19:49.000Z,2.13
2023-01-17T09:22:16.445Z,2.08
2023-01-17T09:24:44.009Z,2.15
2023-01-17T09:27:11.470Z,2.01
2023-01-17T09:29:38.978Z,1.93
2023-01-17T09:32:06.469Z,1.95
2023-01-17T09:34:33.945Z,1.88
2023-01-17T09:37:01.409Z,1.78
2023-01-17T09:39:28.920Z,1.77
2023-01-17T09:42:20.019Z,1.83
2023-01-17T09:44:53.704Z,1.79
2023-01-17T09:47:36.875Z,1.79
2023-01-17T09:50:18.594Z,1.90
2023-01-17T09:52:46.381Z,1.68
2023-01-17T09:55:16.089Z,1.73
2023-01-17T09:57:56.953Z,1.83
2023-01-17T10:00:42.152Z,1.82
2023-01-17T10:03:46.724Z,1.90
2023-01-17T10:06:23.187Z,1.81
2023-01-17T10:08:53.433Z,1.63
2023-01-17T10:11:45.878Z,1.57
2023-01-17T10:14:25.456Z,1.59
2023-01-17T10:17:22.001Z,1.77
2023-01-17T10:20:24.753Z,1.73
2023-01-17T10:22:58.062Z,1.56
2023-01-17T10:25:55.365Z,1.73
2023-01-17T10:28:39.622Z,1.60
2023-01-17T10:31:28.842Z,1.65
2023-01-17T10:34:04.130Z,1.47
2023-01-17T10:36:38.477Z,1.45
2023-01-17T10:39:19.658Z,1.53
2023-01-17T10:41:56.020Z,1.43
2023-01-17T10:44:39.252Z,1.45
2023-01-17T10:47:12.596Z,1.22
2023-01-17T10:49:45.748Z,1.35
2023-01-17T10:52:25.155Z,1.54
2023-01-17T10:55:34.490Z,1.67
2023-01-17T10:58:03.846Z,1.56
2023-01-17T11:00:44.227Z,1.51
2023-01-17T11:03:18.488Z,1.45
2023-01-17T11:05:45.996Z,1.19
2023-01-17T11:08:15.114Z,1.29
2023-01-17T11:10:50.233Z,1.33
2023-01-17T11:13:34.620Z,1.34
2023-01-17T11:16:07.042Z,1.25
2023-01-17T11:18:41.097Z,1.24
2023-01-17T11:21:12.495Z,1.54
2023-01-17T11:23:52.237Z,1.34
2023-01-17T11:26:34.779Z,1.42
2023-01-17T11:29:31.866Z,1.23
2023-01-17T11:32:32.607Z,1.08
2023-01-17T11:35:18.716Z,0.50
2023-01-17T11:37:58.782Z,0.12
2023-01-17T11:40:36.448Z,-0.05
2023-01-17T11:43:06.703Z,-0.33
2023-01-17T11:45:34.940Z,-0.69
2023-01-17T11:48:13.568Z,-0.77
2023-01-17T11:51:00.536Z,-0.89
2023-01-17T11:53:35.241Z,-0.98
2023-01-17T11:56:07.485Z,-1.17
2023-01-17T11:58:38.371Z,-1.32
2023-01-17T12:01:28.693Z,-1.49
2023-01-17T12:04:28.368Z,-1.66
2023-01-17T12:07:17.083Z,-1.59
2023-01-17T12:10:02.869Z,-1.05
2023-01-17T12:13:26.951Z,-0.83
2023-01-17T12:16:31.928Z,-0.36
2023-01-17T12:19:17.643Z,-0.09
2023-01-17T12:22:00.610Z,0.06
2023-01-17T12:24:48.303Z,-0.35
2023-01-17T12:27:23.217Z,-0.45
2023-01-17T12:29:59.070Z,-0.27
2023-01-17T12:32:42.099Z,-0.18
2023-01-17T12:35:20.615Z,-0.12
2023-01-17T12:38:04.415Z,-0.13
2023-01-17T12:40:51.035Z,-0.07
2023-01-17T12:43:29.541Z,-0.31
2023-01-17T12:45:58.520Z,-0.28
2023-01-17T12:48:36.219Z,-0.28
2023-01-17T12:51:07.034Z,-0.36
2023-01-17T12:53:59.936Z,-0.55
2023-01-17T12:56:35.527Z,-0.55
2023-01-17T12:59:40.324Z,-0.44
2023-01-17T13:02:36.963Z,-0.36
2023-01-17T13:05:15.536Z,-0.45
2023-01-17T13:07:51.646Z,-0.50
2023-01-17T13:10:36.004Z,-0.37
2023-01-17T13:13:24.667Z,-0.04
2023-01-17T13:16:05.532Z,0.10
2023-01-17T13:18:33.761Z,0.13
2023-01-17T13:21:31.859Z,0.40
2023-01-17T13:24:08.351Z,0.42
2023-01-17T13:26:50.897Z,0.54
2023-01-17T13:29:43.355Z,0.58
2023-01-17T13:32:29.285Z,0.60
2023-01-17T13:35:00.969Z,0.47
2023-01-17T13:37:58.239Z,0.38
2023-01-17T13:40:50.029Z,-0.07
2023-01-17T13:43:27.001Z,0.08
2023-01-17T13:45:59.032Z,0.19
2023-01-17T13:48:32.073Z,0.21
2023-01-17T13:51:00.947Z,0.12
2023-01-17T13:53:34.446Z,0.28
2023-01-17T13:56:12.781Z,-0.20
2023-01-17T13:58:50.648Z,0.17
2023-01-17T14:01:24.595Z,0.27
2023-01-17T14:03:53.035Z,0.05
2023-01-17T14:06:45.186Z,0.20
2023-01-17T14:09:30.515Z,-0.07
2023-01-17T14:12:06.188Z,-0.20
2023-01-17T14:14:43.145Z,-0.22
2023-01-17T14:17:16.794Z,-0.34
2023-01-17T14:19:49.536Z,-0.37
2023-01-17T14:22:25.925Z,-0.28
2023-01-17T14:25:06.056Z,-0.28
2023-01-17T14:27:35.172Z,-0.31
2023-01-17T14:30:07.719Z,-0.32
2023-01-17T14:32:37.687Z,-0.48
2023-01-17T14:35:06.551Z,-0.43
2023-01-17T14:37:43.215Z,-0.51
2023-01-17T14:40:16.770Z,-0.52
2023-01-17T14:42:46.016Z,-0.55
2023-01-17T14:45:18.816Z,-0.49
2023-01-17T14:47:46.632Z,-0.61
2023-01-17T14:50:30.749Z,-0.39
2023-01-17T14:53:13.680Z,-0.38
2023-01-17T14:55:53.369Z,-0.52
2023-01-17T14:58:36.735Z,-0.49
2023-01-17T15:01:11.820Z,-0.71
2023-01-17T15:03:51.907Z,-0.79
2023-01-17T15:06:38.859Z,-0.89
2023-01-17T15:09:17.759Z,-0.94
2023-01-17T15:11:47.338Z,-1.11
2023-01-17T15:14:30.632Z,-1.01
2023-01-17T15:17:08.720Z,-1.12
2023-01-17T15:19:48.730Z,-0.99
2023-01-17T15:22:19.120Z,-1.07
2023-01-17T15:24:48.397Z,-1.14
2023-01-17T15:27:17.299Z,-1.02
2023-01-17T15:29:46.937Z,-0.97
2023-01-17T15:32:34.079Z,-0.94
2023-01-17T15:35:03.169Z,-1.09
2023-01-17T15:37:33.816Z,-0.96
2023-01-17T15:40:20.213Z,-0.84
2023-01-17T15:42:51.451Z,-0.88
2023-01-17T15:45:25.000Z,-0.86
2023-01-17T15:47:52.940Z,-0.86
2023-01-17T15:50:20.723Z,-0.84
2023-01-17T15:52:53.477Z,-0.90
2023-01-17T15:55:30.097Z,-0.80
2023-01-17T15:57:57.884Z,-0.82
2023-01-17T16:00:33.024Z,-0.85
2023-01-17T16:03:01.309Z,-0.85
2023-01-17T16:05:34.173Z,-0.74
2023-01-17T16:08:13.591Z,-0.70
2023-01-17T16:10:51.813Z,-0.77
2023-01-17T16:13:23.459Z,-0.70
2023-01-17T16:15:51.808Z,-0.83
2023-01-17T16:18:26.226Z,-0.50
2023-01-17T16:21:01.838Z,-0.50
2023-01-17T16:23:32.273Z,-0.45
2023-01-17T16:26:00.477Z,-0.36
2023-01-17T16:28:28.339Z,-0.25
2023-01-17T16:30:56.426Z,-0.18
2023-01-17T16:33:24.446Z,-0.13
2023-01-17T16:35:54.946Z,0.02
2023-01-17T16:38:22.621Z,-0.04
2023-01-17T16:40:52.477Z,-0.06
2023-01-17T16:43:22.546Z,-0.02
2023-01-17T16:45:54.331Z,-0.12
2023-01-17T16:48:22.734Z,-0.07
2023-01-17T16:50:53.341Z,-0.11
2023-01-17T16:53:26.495Z,0.07
2023-01-17T16:55:57.771Z,0.02
2023-01-17T16:58:25.892Z,-0.14
2023-01-17T17:00:58.171Z,-0.04
2023-01-17T17:03:30.077Z,-0.10
2023-01-17T17:06:01.941Z,-0.04
2023-01-17T17:08:30.326Z,-0.24
2023-01-17T17:11:16.398Z,-0.04
2023-01-17T17:13:46.495Z,-0.14
2023-01-17T17:16:19.242Z,-0.16
2023-01-17T17:18:53.997Z,-0.25
2023-01-17T17:21:21.991Z,-0.40
2023-01-17T17:23:57.093Z,-0.45
2023-01-17T17:26:31.290Z,-0.56
2023-01-17T17:28:59.348Z,-0.70
2023-01-17T17:31:27.646Z,-0.80
2023-01-17T17:33:59.825Z,-0.85
2023-01-17T17:36:27.642Z,-0.94
2023-01-17T17:38:58.994Z,-1.04
2023-01-17T17:41:29.659Z,-1.11
2023-01-17T17:43:58.146Z,-1.14
2023-01-17T17:46:27.496Z,-1.15
2023-01-17T17:48:57.072Z,-1.19
2023-01-17T17:51:26.107Z,-1.11
2023-01-17T17:53:55.766Z,-1.16
2023-01-17T17:56:24.198Z,-1.10
2023-01-17T17:58:51.955Z,-1.09
2023-01-17T18:01:20.070Z,-1.08
2023-01-17T18:03:47.777Z,-1.03
2023-01-17T18:06:17.695Z,-1.01
2023-01-17T18:08:46.202Z,-1.01
2023-01-17T18:11:18.781Z,-0.96
2023-01-17T18:13:51.069Z,-0.94
2023-01-17T18:16:26.855Z,-0.87
2023-01-17T18:18:56.683Z,-0.88
2023-01-17T18:21:40.395Z,-0.70
2023-01-17T18:24:13.755Z,-0.66
2023-01-17T18:26:42.457Z,-0.69
2023-01-17T18:29:15.025Z,-0.75
2023-01-17T18:31:44.483Z,-0.71
2023-01-17T18:34:17.688Z,-0.54
2023-01-17T18:36:45.602Z,-0.61
2023-01-17T18:39:19.672Z,-0.52
2023-01-17T18:41:52.075Z,-0.53
2023-01-17T18:44:22.113Z,-0.57
2023-01-17T18:46:51.952Z,-0.50
2023-01-17T18:49:19.541Z,-0.51
2023-01-17T18:51:51.663Z,-0.52
2023-01-17T18:54:20.601Z,-0.52
2023-01-17T18:56:48.905Z,-0.52
2023-01-17T18:59:18.833Z,-0.50
2023-01-17T19:01:47.100Z,-0.49
2023-01-17T19:04:16.571Z,-0.44
2023-01-17T19:06:47.067Z,-0.44
2023-01-17T19:09:15.878Z,-0.51
2023-01-17T19:11:45.312Z,-0.63
2023-01-17T19:14:13.243Z,-0.57
2023-01-17T19:16:42.443Z,-0.49
2023-01-17T19:19:15.476Z,-0.43
2023-01-17T19:21:44.016Z,-0.52
2023-01-17T19:24:13.520Z,-0.65
2023-01-17T19:26:42.024Z,-0.67
2023-01-17T19:29:11.184Z,-0.65
2023-01-17T19:31:50.193Z,-0.62
2023-01-17T19:34:19.848Z,-0.79
2023-01-17T19:36:47.638Z,-0.73
2023-01-17T19:39:15.238Z,-0.74
2023-01-17T19:41:44.857Z,-0.84
2023-01-17T19:44:14.315Z,-0.71
2023-01-17T19:46:42.083Z,-0.78
2023-01-17T19:49:09.782Z,-0.80
2023-01-17T19:51:39.558Z,-0.77
2023-01-17T19:54:08.635Z,-1.01
2023-01-17T19:56:36.178Z,-1.28
2023-01-17T19:59:04.150Z,-1.40
2023-01-17T20:01:34.012Z,-1.62
2023-01-17T20:04:03.499Z,-1.75
2023-01-17T20:06:36.737Z,-2.05
2023-01-17T20:09:06.443Z,-1.76
2023-01-17T20:11:34.294Z,-2.05
2023-01-17T20:14:02.216Z,-2.45
2023-01-17T20:16:32.280Z,-2.79
2023-01-17T20:19:03.014Z,-2.99
2023-01-17T20:21:31.961Z,-2.99
2023-01-17T20:24:00.790Z,-2.66
2023-01-17T20:26:36.253Z,-2.50
2023-01-17T20:29:24.017Z,-2.32
2023-01-17T20:31:55.476Z,-2.23
2023-01-17T20:34:26.127Z,-2.24
2023-01-17T20:36:57.775Z,-2.12
2023-01-17T20:39:25.450Z,-2.01
2023-01-17T20:41:53.074Z,-1.86
2023-01-17T20:44:20.738Z,-1.90
2023-01-17T20:46:48.495Z,-2.02
2023-01-17T20:49:19.448Z,-2.15
2023-01-17T20:51:47.621Z,-2.24
2023-01-17T20:54:19.697Z,-2.27
2023-01-17T20:56:48.203Z,-2.28
2023-01-17T20:59:18.545Z,-2.20
2023-01-17T21:01:46.942Z,-2.20
2023-01-17T21:04:15.086Z,-2.22
2023-01-17T21:06:43.943Z,-2.24
2023-01-17T21:09:14.220Z,-2.17
2023-01-17T21:11:41.800Z,-2.21
2023-01-17T21:14:09.474Z,-2.24
2023-01-17T21:16:37.229Z,-2.27
2023-01-17T21:19:05.549Z,-2.27
2023-01-17T21:21:33.098Z,-2.23
2023-01-17T21:24:00.677Z,-2.17
2023-01-17T21:26:29.142Z,-2.15
2023-01-17T21:28:58.461Z,-2.10
2023-01-17T21:31:33.805Z,-1.88
2023-01-17T21:34:03.982Z,-1.64
2023-01-17T21:36:34.561Z,-1.53
2023-01-17T21:39:07.514Z,-1.57
2023-01-17T21:41:38.096Z,-1.53
2023-01-17T21:44:13.305Z,-1.37
2023-01-17T21:46:41.694Z,-1.43
2023-01-17T21:49:13.559Z,-1.41
2023-01-17T21:52:05.978Z,-1.36
2023-01-17T21:55:06.050Z,-1.17
2023-01-17T21:57:52.511Z,-1.12
2023-01-17T22:00:20.066Z,-1.23
2023-01-17T22:02:48.448Z,-1.23
2023-01-17T22:05:19.903Z,-1.33
2023-01-17T22:08:06.229Z,-1.24
2023-01-17T22:10:44.790Z,-1.31
2023-01-17T22:13:17.423Z,-1.17
2023-01-17T22:15:45.697Z,-1.17
2023-01-17T22:18:14.844Z,-1.16
2023-01-17T22:20:43.197Z,-1.15
2023-01-17T22:23:12.026Z,-1.13
2023-01-17T22:25:39.600Z,-1.11
2023-01-17T22:28:07.159Z,-1.16
2023-01-17T22:30:34.750Z,-1.31
2023-01-17T22:33:02.261Z,-1.36
2023-01-17T22:35:29.808Z,-1.43
2023-01-17T22:37:57.334Z,-1.45
2023-01-17T22:40:26.427Z,-1.46
2023-01-17T22:43:17.237Z,-1.46
2023-01-17T22:45:46.332Z,-1.68
2023-01-17T22:48:13.993Z,-1.74
2023-01-17T22:50:41.455Z,-1.80
2023-01-17T22:53:10.681Z,-1.83
2023-01-17T22:55:38.191Z,-2.10
2023-01-17T22:58:05.770Z,-2.01
2023-01-17T23:00:33.306Z,-2.14
2023-01-17T23:03:01.125Z,-2.26
2023-01-17T23:05:28.785Z,-2.28
2023-01-17T23:07:56.328Z,-2.28
2023-01-17T23:10:44.076Z,-2.32
2023-01-17T23:13:11.701Z,-2.34
2023-01-17T23:15:57.586Z,-2.43
2023-01-17T23:18:43.484Z,-2.36
2023-01-17T23:21:11.065Z,-2.34
2023-01-17T23:23:38.586Z,-2.44
2023-01-17T23:26:06.249Z,-2.44
2023-01-17T23:28:33.708Z,-2.45
2023-01-17T23:31:06.756Z,-2.38
2023-01-17T23:33:34.215Z,-2.41
2023-01-17T23:36:01.852Z,-2.44
2023-01-17T23:38:34.917Z,-2.36
2023-01-17T23:41:23.134Z,-2.34
2023-01-17T23:43:54.362Z,-2.33
2023-01-17T23:46:22.938Z,-2.39
2023-01-17T23:48:50.532Z,-2.36
2023-01-17T23:51:18.251Z,-2.33
2023-01-17T23:53:45.876Z,-2.33
2023-01-17T23:56:21.170Z,-2.28
2023-01-17T23:58:49.168Z,-2.33
